Time;durP1;ratioP1;P1;durP2;ratioP2;P2;SDS_P1;SDS_P2;PMS_P1;PMS_P2;Temp;Humidity;BMP_temperature;BMP_pressure;BME280_temperature;BME280_humidity;BME280_pressure;Samples;Min_cycle;Max_cycle;Signal;HPM_P1;HPM_P2
2022/03/09 00:02:32;;;;;;;19.60;9.77;;;-3.70;99.90;;;;;;21085065;28;20449;-63
2022/03/09 00:12:36;;;;;;;25.15;10.27;;;-3.70;99.90;;;;;;21049819;28;20376;-62
2022/03/09 00:22:39;;;;;;;20.73;9.52;;;-3.80;99.90;;;;;;21050016;28;20549;-61
2022/03/09 00:32:41;;;;;;;22.23;10.55;;;-3.90;99.90;;;;;;21033642;28;20085;-59
2022/03/09 00:42:44;;;;;;;24.55;11.52;;;-4.00;99.90;;;;;;21049552;28;20040;-59
2022/03/09 00:52:47;;;;;;;27.75;13.05;;;-4.00;99.90;;;;;;21047195;28;20070;-58
2022/03/09 01:02:50;;;;;;;25.75;11.63;;;-4.00;99.90;;;;;;21046935;28;20032;-61
2022/03/09 01:12:52;;;;;;;24.50;11.52;;;-3.80;99.90;;;;;;20841833;28;20119;-57
2022/03/09 01:22:56;;;;;;;26.83;13.18;;;-3.70;99.90;;;;;;20871248;28;20079;-57
2022/03/09 01:32:58;;;;;;;25.70;11.63;;;-3.80;99.90;;;;;;20870733;28;20061;-52
2022/03/09 01:43:01;;;;;;;26.83;12.40;;;-3.60;99.90;;;;;;20870810;28;20095;-53
2022/03/09 01:53:04;;;;;;;23.50;12.05;;;-3.90;99.90;;;;;;20976299;28;20493;-54
2022/03/09 02:03:07;;;;;;;24.27;11.68;;;-4.10;99.90;;;;;;21044782;28;20453;-58
2022/03/09 02:13:10;;;;;;;25.55;11.93;;;-3.80;99.90;;;;;;21051815;28;20104;-56
2022/03/09 02:23:13;;;;;;;25.95;12.05;;;-3.80;99.90;;;;;;21142853;28;20035;-51
2022/03/09 02:33:15;;;;;;;28.85;11.75;;;-4.00;99.90;;;;;;21142517;28;20498;-52
2022/03/09 02:43:18;;;;;;;27.77;11.30;;;-4.10;99.90;;;;;;21142187;28;20040;-55
2022/03/09 02:53:20;;;;;;;19.00;9.43;;;-4.10;99.90;;;;;;21141163;28;20101;-55
2022/03/09 03:03:24;;;;;;;22.80;10.25;;;-4.00;99.90;;;;;;21140628;28;20065;-63
2022/03/09 03:13:28;;;;;;;23.35;10.88;;;-4.10;99.90;;;;;;21065214;28;20043;-55
2022/03/09 03:23:33;;;;;;;23.08;11.48;;;-4.10;99.90;;;;;;21054071;28;20040;-56
2022/03/09 03:33:35;;;;;;;27.27;11.23;;;-4.10;99.90;;;;;;21052208;28;20479;-54
2022/03/09 03:43:38;;;;;;;23.05;10.45;;;-4.20;99.90;;;;;;21052590;28;20062;-52
2022/03/09 03:53:43;;;;;;;23.48;10.90;;;-4.30;99.90;;;;;;21052193;28;20036;-57
2022/03/09 04:03:46;;;;;;;26.42;11.63;;;-4.30;99.90;;;;;;21050797;28;20036;-56
2022/03/09 04:13:48;;;;;;;25.55;10.27;;;-4.10;99.90;;;;;;21049971;28;20048;-58
2022/03/09 04:23:51;;;;;;;25.15;11.75;;;-4.20;99.90;;;;;;21049499;28;20420;-58
2022/03/09 04:33:54;;;;;;;22.42;9.98;;;-4.30;99.90;;;;;;21048919;28;20036;-58
2022/03/09 04:43:57;;;;;;;28.48;12.27;;;-4.40;99.90;;;;;;21047776;28;20447;-58
2022/03/09 04:53:59;;;;;;;26.85;12.07;;;-4.30;99.90;;;;;;21047526;28;20040;-54
2022/03/09 05:04:02;;;;;;;23.98;11.02;;;-4.30;99.90;;;;;;21046841;28;20086;-58
2022/03/09 05:14:04;;;;;;;26.52;11.07;;;-4.20;99.90;;;;;;21046359;28;20097;-58
2022/03/09 05:24:07;;;;;;;24.33;10.77;;;-4.40;99.90;;;;;;21046263;28;20048;-57
2022/03/09 05:34:10;;;;;;;20.98;9.88;;;-4.40;99.90;;;;;;21030280;28;20036;-59
2022/03/09 05:44:13;;;;;;;24.98;11.90;;;-4.40;99.90;;;;;;21046441;28;20032;-57
2022/03/09 05:54:16;;;;;;;24.45;11.75;;;-4.40;99.90;;;;;;21054334;28;20040;-57
2022/03/09 06:04:19;;;;;;;27.08;10.50;;;-4.30;99.90;;;;;;21050038;28;20051;-56
2022/03/09 06:14:21;;;;;;;27.17;11.48;;;-4.10;99.90;;;;;;21079606;28;20048;-56
2022/03/09 06:24:25;;;;;;;26.35;10.55;;;-4.00;99.90;;;;;;21092597;28;20112;-59
2022/03/09 06:34:28;;;;;;;22.45;9.93;;;-3.70;99.90;;;;;;21140877;28;20028;-58
2022/03/09 06:44:31;;;;;;;23.23;10.68;;;-3.20;99.90;;;;;;21161158;28;20035;-59
2022/03/09 06:54:34;;;;;;;20.23;9.85;;;-3.00;99.90;;;;;;21142687;28;20039;-58
2022/03/09 07:04:36;;;;;;;22.25;10.15;;;-2.70;99.90;;;;;;21156974;28;20088;-54
2022/03/09 07:14:39;;;;;;;25.45;11.40;;;-2.50;99.90;;;;;;21140828;27;20056;-54
2022/03/09 07:24:43;;;;;;;24.30;11.25;;;-2.30;99.90;;;;;;21140520;28;20057;-52
2022/03/09 07:34:47;;;;;;;26.20;12.35;;;-1.40;99.90;;;;;;21140269;28;20096;-54
2022/03/09 07:44:49;;;;;;;21.23;10.48;;;-0.40;99.90;;;;;;21145425;27;20039;-57
2022/03/09 07:54:52;;;;;;;23.10;11.38;;;0.70;99.90;;;;;;21223296;27;20099;-55
2022/03/09 08:04:56;;;;;;;21.35;9.85;;;1.90;99.90;;;;;;21222704;27;20035;-57
2022/03/09 08:14:59;;;;;;;19.88;10.40;;;3.00;97.30;;;;;;21163615;27;20058;-59
2022/03/09 08:25:06;;;;;;;19.17;10.63;;;3.90;94.20;;;;;;21135045;28;20372;-59
2022/03/09 08:35:09;;;;;;;21.50;10.35;;;4.60;92.80;;;;;;21136718;28;20428;-54
2022/03/09 08:45:11;;;;;;;15.98;9.20;;;5.10;90.90;;;;;;21133221;28;20112;-58
2022/03/09 08:55:14;;;;;;;16.45;8.73;;;5.80;87.30;;;;;;21133558;28;20032;-59
2022/03/09 09:05:17;;;;;;;15.75;8.30;;;6.20;79.70;;;;;;21132462;28;20040;-57
2022/03/09 09:15:22;;;;;;;16.10;9.13;;;6.60;79.00;;;;;;21106080;28;20109;-59
2022/03/09 09:25:27;;;;;;;15.30;8.50;;;7.00;77.50;;;;;;21050616;28;20737;-58
2022/03/09 09:35:29;;;;;;;20.20;8.88;;;7.20;76.30;;;;;;21063758;28;20100;-59
2022/03/09 09:45:32;;;;;;;19.55;9.25;;;7.30;75.90;;;;;;21047372;28;20536;-60
2022/03/09 09:55:37;;;;;;;18.40;10.18;;;7.40;75.90;;;;;;21061656;28;20036;-59
2022/03/09 10:05:40;;;;;;;17.92;9.75;;;7.80;75.90;;;;;;21061103;28;20040;-60
2022/03/09 10:15:45;;;;;;;18.05;10.07;;;8.20;75.30;;;;;;21060562;28;20475;-59
2022/03/09 10:25:48;;;;;;;17.73;9.48;;;8.60;74.00;;;;;;21059955;28;20520;-59
2022/03/09 10:35:51;;;;;;;17.40;9.38;;;8.60;74.80;;;;;;21057994;28;20445;-59
2022/03/09 10:46:04;;;;;;;18.60;9.63;;;8.40;75.90;;;;;;21106788;28;20035;-60
2022/03/09 10:56:07;;;;;;;19.50;9.85;;;8.50;76.00;;;;;;21141608;28;20092;-60
2022/03/09 11:06:11;;;;;;;17.23;9.82;;;8.80;75.10;;;;;;21123900;28;20035;-60
2022/03/09 11:16:14;;;;;;;17.65;9.85;;;9.00;75.80;;;;;;21139376;28;20165;-58
2022/03/09 11:26:23;;;;;;;20.08;10.15;;;8.90;76.30;;;;;;21121846;28;20387;-60
2022/03/09 11:36:29;;;;;;;19.45;11.05;;;9.10;75.00;;;;;;21137821;28;20092;-61
2022/03/09 11:47:01;;;;;;;22.48;11.48;;;9.20;75.30;;;;;;21136181;28;20061;-60
2022/03/09 11:57:03;;;;;;;19.40;11.38;;;9.40;73.00;;;;;;21136475;28;20039;-60
2022/03/09 12:07:08;;;;;;;20.27;10.55;;;9.40;76.30;;;;;;21135049;28;20043;-61
2022/03/09 12:17:10;;;;;;;21.83;11.00;;;9.60;74.60;;;;;;21059496;28;20124;-60
2022/03/09 12:27:24;;;;;;;20.83;10.98;;;9.70;74.90;;;;;;21134080;28;20027;-59
2022/03/09 12:37:26;;;;;;;19.50;10.73;;;10.00;75.00;;;;;;21133577;28;20172;-61
2022/03/09 12:47:34;;;;;;;21.23;11.93;;;10.00;73.80;;;;;;21132993;28;20312;-60
2022/03/09 12:57:38;;;;;;;19.70;10.95;;;9.80;74.30;;;;;;21131999;28;20387;-61
2022/03/09 13:07:54;;;;;;;22.77;11.02;;;9.70;73.80;;;;;;21114840;28;20081;-61
2022/03/09 13:17:56;;;;;;;23.10;10.35;;;9.60;72.70;;;;;;21130616;28;20403;-61
2022/03/09 13:28:02;;;;;;;19.45;9.48;;;9.30;68.90;;;;;;21148683;28;20091;-60
2022/03/09 13:38:04;;;;;;;17.77;9.55;;;9.20;68.70;;;;;;21130189;28;20027;-60
2022/03/09 13:48:18;;;;;;;16.05;8.65;;;9.10;67.90;;;;;;21131124;28;20065;-61
2022/03/09 13:58:27;;;;;;;17.27;8.95;;;8.70;65.20;;;;;;21129453;28;20031;-60
2022/03/09 14:08:33;;;;;;;16.27;7.95;;;8.20;65.30;;;;;;21128459;28;20078;-59
2022/03/09 14:18:36;;;;;;;13.93;7.38;;;7.70;64.50;;;;;;21142465;28;20105;-58
2022/03/09 14:28:39;;;;;;;17.25;9.27;;;7.00;63.70;;;;;;21143771;28;20047;-58
2022/03/09 14:38:42;;;;;;;17.63;8.65;;;6.50;66.90;;;;;;21142900;28;20036;-58
2022/03/09 14:48:46;;;;;;;18.25;9.73;;;6.30;65.60;;;;;;21142151;28;20440;-57
2022/03/09 14:58:49;;;;;;;19.38;9.52;;;5.90;67.80;;;;;;21140894;28;20031;-56
2022/03/09 15:08:55;;;;;;;22.08;10.45;;;5.50;69.00;;;;;;21141527;28;20035;-56
2022/03/09 15:18:57;;;;;;;21.90;10.65;;;5.20;69.20;;;;;;21140255;28;20043;-54
2022/03/09 15:29:02;;;;;;;22.38;10.02;;;4.80;70.50;;;;;;21139333;28;20095;-57
2022/03/09 15:39:05;;;;;;;22.02;9.80;;;4.60;70.60;;;;;;21138313;28;20088;-60
2022/03/09 15:49:07;;;;;;;21.10;10.90;;;4.30;71.30;;;;;;21137233;28;20133;-59
2022/03/09 15:59:11;;;;;;;21.30;10.57;;;4.00;72.00;;;;;;21136328;28;20069;-58
2022/03/09 16:09:13;;;;;;;21.67;9.77;;;3.40;74.00;;;;;;21135093;28;20031;-57
2022/03/09 16:19:16;;;;;;;16.73;8.30;;;2.90;78.50;;;;;;21134367;28;20092;-58
2022/03/09 16:29:19;;;;;;;17.73;9.00;;;2.30;82.50;;;;;;21134124;28;20069;-55
2022/03/09 16:39:22;;;;;;;22.92;10.80;;;1.80;85.20;;;;;;21132787;28;20035;-58
2022/03/09 16:49:24;;;;;;;26.38;10.70;;;1.40;86.20;;;;;;21129942;28;20096;-57
2022/03/09 16:59:29;;;;;;;19.75;8.02;;;1.00;88.10;;;;;;21132072;28;20058;-56
2022/03/09 17:09:31;;;;;;;20.95;9.13;;;0.60;90.10;;;;;;21131066;28;20036;-55
2022/03/09 17:19:34;;;;;;;17.05;7.97;;;0.40;89.30;;;;;;21130810;28;20449;-58
2022/03/09 17:29:38;;;;;;;14.40;7.20;;;0.10;91.00;;;;;;21130342;28;20036;-57
2022/03/09 17:39:41;;;;;;;16.63;7.18;;;-0.10;91.10;;;;;;21130365;28;20039;-57
2022/03/09 17:49:44;;;;;;;15.10;7.43;;;-0.30;90.90;;;;;;21119990;28;20070;-59
2022/03/09 17:59:49;;;;;;;15.80;7.32;;;-0.20;90.20;;;;;;21163195;28;20512;-58
2022/03/09 18:09:51;;;;;;;15.35;7.68;;;-0.40;90.80;;;;;;21162123;28;20035;-58
2022/03/09 18:19:59;;;;;;;14.90;6.60;;;-0.60;91.00;;;;;;21143706;28;20407;-57
2022/03/09 18:30:04;;;;;;;10.32;4.50;;;-0.60;90.80;;;;;;21143176;28;20071;-57
2022/03/09 18:40:07;;;;;;;13.88;6.25;;;-0.50;88.50;;;;;;21142761;28;20031;-58
2022/03/09 18:50:12;;;;;;;17.95;8.18;;;-0.50;90.30;;;;;;21141488;28;20040;-52
2022/03/09 19:00:15;;;;;;;18.52;8.10;;;-0.70;90.30;;;;;;21140266;28;20032;-58
2022/03/09 19:10:18;;;;;;;18.05;7.82;;;-0.80;90.50;;;;;;21142309;28;20368;-58
2022/03/09 19:20:21;;;;;;;19.10;7.93;;;-1.00;90.90;;;;;;21139033;28;20051;-54
2022/03/09 19:30:26;;;;;;;17.55;7.72;;;-1.10;91.00;;;;;;21121590;28;20569;-59
2022/03/09 19:40:31;;;;;;;21.35;9.43;;;-1.30;91.20;;;;;;21161391;27;20061;-56
2022/03/09 19:50:35;;;;;;;19.95;9.07;;;-1.50;91.40;;;;;;21154290;28;20031;-58
2022/03/09 20:00:37;;;;;;;22.73;9.65;;;-1.50;91.70;;;;;;21139083;28;20529;-56
2022/03/09 20:10:40;;;;;;;25.15;9.88;;;-1.60;91.70;;;;;;21134539;28;20036;-62
2022/03/09 20:20:46;;;;;;;21.17;9.75;;;-1.60;91.50;;;;;;21063762;28;20562;-61
2022/03/09 20:30:50;;;;;;;20.00;9.02;;;-1.70;91.60;;;;;;21049938;28;20130;-60
2022/03/09 20:40:53;;;;;;;21.67;9.38;;;-1.80;92.30;;;;;;21049245;28;20058;-60
2022/03/09 20:50:56;;;;;;;19.13;8.60;;;-1.90;92.30;;;;;;21048363;28;20039;-55
2022/03/09 21:00:58;;;;;;;20.73;8.93;;;-2.00;93.80;;;;;;21047173;28;20098;-55
2022/03/09 21:11:01;;;;;;;19.45;8.32;;;-2.20;93.50;;;;;;21030050;28;20040;-55
2022/03/09 21:21:03;;;;;;;22.05;8.80;;;-2.20;94.70;;;;;;21052961;28;20052;-57
2022/03/09 21:31:07;;;;;;;20.35;8.32;;;-2.20;94.90;;;;;;21037708;28;20093;-60
2022/03/09 21:41:09;;;;;;;17.65;7.45;;;-2.20;94.90;;;;;;21073972;28;20040;-60
2022/03/09 21:51:12;;;;;;;17.98;6.88;;;-2.20;93.70;;;;;;21072970;28;20044;-60
2022/03/09 22:01:15;;;;;;;16.33;7.18;;;-2.30;93.70;;;;;;21074312;28;20036;-62
2022/03/09 22:11:19;;;;;;;22.15;7.20;;;-2.10;93.50;;;;;;21072113;28;20244;-61
2022/03/09 22:21:26;;;;;;;15.40;7.05;;;-2.10;93.60;;;;;;21073003;28;20055;-59
2022/03/09 22:31:31;;;;;;;17.70;7.55;;;-2.20;93.00;;;;;;21069036;28;20094;-59
2022/03/09 22:41:34;;;;;;;20.15;7.90;;;-2.30;94.10;;;;;;21058844;28;20040;-59
2022/03/09 22:51:37;;;;;;;17.05;7.10;;;-2.20;94.50;;;;;;21057504;28;20032;-55
2022/03/09 23:01:39;;;;;;;19.48;7.93;;;-2.20;94.30;;;;;;21056911;28;20032;-59
2022/03/09 23:11:42;;;;;;;14.52;7.10;;;-2.20;95.80;;;;;;21056985;28;20093;-61
2022/03/09 23:21:44;;;;;;;20.95;7.63;;;-2.10;94.60;;;;;;21134259;28;20069;-60
2022/03/09 23:31:47;;;;;;;17.45;7.22;;;-2.00;95.50;;;;;;20961811;28;20083;-59
2022/03/09 23:41:50;;;;;;;15.93;7.35;;;-1.90;95.50;;;;;;20977732;28;20078;-59
2022/03/09 23:51:52;;;;;;;15.50;6.45;;;-2.10;94.60;;;;;;20976512;28;20040;-60
